sensor_id;sensor_type;location;lat;lon;timestamp;pressure;altitude;pressure_sealevel;temperature;humidity
59757;BME280;45631;51.962;5.974;2023-01-28T00:02:04;102791.56;;;1.99;100.00
59757;BME280;45631;51.962;5.974;2023-01-28T00:04:33;102801.97;;;2.03;100.00
59757;BME280;45631;51.962;5.974;2023-01-28T00:07:01;102807.13;;;1.97;100.00
59757;BME280;45631;51.962;5.974;2023-01-28T00:09:29;102809.75;;;2.00;100.00
59757;BME280;45631;51.962;5.974;2023-01-28T00:11:59;102808.84;;;2.01;100.00
59757;BME280;45631;51.962;5.974;2023-01-28T00:14:27;102813.19;;;2.04;100.00
59757;BME280;45631;51.962;5.974;2023-01-28T00:16:56;102807.16;;;2.05;100.00
59757;BME280;45631;51.962;5.974;2023-01-28T00:19:24;102804.56;;;2.05;100.00
59757;BME280;45631;51.962;5.974;2023-01-28T00:21:52;102804.56;;;2.03;100.00
59757;BME280;45631;51.962;5.974;2023-01-28T00:24:20;102807.16;;;2.00;100.00
59757;BME280;45631;51.962;5.974;2023-01-28T00:26:49;102801.06;;;2.03;100.00
59757;BME280;45631;51.962;5.974;2023-01-28T00:29:18;102799.34;;;1.99;100.00
59757;BME280;45631;51.962;5.974;2023-01-28T00:31:47;102797.63;;;1.99;100.00
59757;BME280;45631;51.962;5.974;2023-01-28T00:34:15;102799.38;;;2.00;100.00
59757;BME280;45631;51.962;5.974;2023-01-28T00:36:43;102797.63;;;2.01;100.00
59757;BME280;45631;51.962;5.974;2023-01-28T00:39:13;102803.66;;;2.01;100.00
59757;BME280;45631;51.962;5.974;2023-01-28T00:41:42;102801.94;;;2.07;100.00
59757;BME280;45631;51.962;5.974;2023-01-28T00:44:10;102814.06;;;2.03;100.00
59757;BME280;45631;51.962;5.974;2023-01-28T00:46:39;102813.19;;;1.99;100.00
59757;BME280;45631;51.962;5.974;2023-01-28T00:49:08;102814.94;;;2.02;100.00
59757;BME280;45631;51.962;5.974;2023-01-28T00:51:37;102813.19;;;1.99;100.00
59757;BME280;45631;51.962;5.974;2023-01-28T00:54:05;102819.25;;;2.03;100.00
59757;BME280;45631;51.962;5.974;2023-01-28T00:56:34;102821.84;;;2.00;100.00
59757;BME280;45631;51.962;5.974;2023-01-28T00:59:02;102821.88;;;2.08;100.00
59757;BME280;45631;51.962;5.974;2023-01-28T01:01:31;102823.56;;;2.07;100.00
59757;BME280;45631;51.962;5.974;2023-01-28T01:04:01;102816.66;;;2.03;100.00
59757;BME280;45631;51.962;5.974;2023-01-28T01:06:31;102821.84;;;2.01;100.00
59757;BME280;45631;51.962;5.974;2023-01-28T01:09:00;102819.25;;;2.00;100.00
59757;BME280;45631;51.962;5.974;2023-01-28T01:11:28;102823.56;;;2.01;100.00
59757;BME280;45631;51.962;5.974;2023-01-28T01:13:58;102819.25;;;1.95;100.00
59757;BME280;45631;51.962;5.974;2023-01-28T01:16:29;102817.50;;;1.97;100.00
59757;BME280;45631;51.962;5.974;2023-01-28T01:19:00;102820.94;;;1.92;100.00
59757;BME280;45631;51.962;5.974;2023-01-28T01:21:29;102817.50;;;1.94;100.00
59757;BME280;45631;51.962;5.974;2023-01-28T01:23:58;102822.69;;;1.94;100.00
59757;BME280;45631;51.962;5.974;2023-01-28T01:26:26;102814.88;;;1.88;100.00
59757;BME280;45631;51.962;5.974;2023-01-28T01:28:54;102823.56;;;1.89;100.00
59757;BME280;45631;51.962;5.974;2023-01-28T01:31:22;102821.81;;;1.89;100.00
59757;BME280;45631;51.962;5.974;2023-01-28T01:33:51;102828.75;;;1.89;100.00
59757;BME280;45631;51.962;5.974;2023-01-28T01:36:21;102820.94;;;1.85;100.00
59757;BME280;45631;51.962;5.974;2023-01-28T01:38:52;102822.66;;;1.86;100.00
59757;BME280;45631;51.962;5.974;2023-01-28T01:41:24;102818.31;;;1.81;100.00
59757;BME280;45631;51.962;5.974;2023-01-28T01:43:54;102814.88;;;1.83;100.00
59757;BME280;45631;51.962;5.974;2023-01-28T01:46:31;102813.13;;;1.81;100.00
59757;BME280;45631;51.962;5.974;2023-01-28T01:49:06;102812.28;;;1.83;100.00
59757;BME280;45631;51.962;5.974;2023-01-28T01:51:40;102813.16;;;1.89;100.00
59757;BME280;45631;51.962;5.974;2023-01-28T01:54:08;102816.63;;;1.88;100.00
59757;BME280;45631;51.962;5.974;2023-01-28T01:56:39;102814.88;;;1.86;100.00
59757;BME280;45631;51.962;5.974;2023-01-28T01:59:11;102815.75;;;1.85;100.00
59757;BME280;45631;51.962;5.974;2023-01-28T02:01:41;102827.84;;;1.86;100.00
59757;BME280;45631;51.962;5.974;2023-01-28T02:04:14;102830.44;;;1.80;100.00
59757;BME280;45631;51.962;5.974;2023-01-28T02:06:47;102829.59;;;1.81;100.00
59757;BME280;45631;51.962;5.974;2023-01-28T02:09:23;102820.91;;;1.82;100.00
59757;BME280;45631;51.962;5.974;2023-01-28T02:11:53;102826.97;;;1.80;100.00
59757;BME280;45631;51.962;5.974;2023-01-28T02:14:26;102826.97;;;1.78;100.00
59757;BME280;45631;51.962;5.974;2023-01-28T02:16:58;102820.91;;;1.75;100.00
59757;BME280;45631;51.962;5.974;2023-01-28T02:22:29;102820.03;;;1.71;100.00
59757;BME280;45631;51.962;5.974;2023-01-28T02:25:52;102826.97;;;1.72;100.00
59757;BME280;45631;51.962;5.974;2023-01-28T02:28:31;102830.41;;;1.76;100.00
59757;BME280;45631;51.962;5.974;2023-01-28T02:31:08;102830.41;;;1.76;100.00
59757;BME280;45631;51.962;5.974;2023-01-28T02:33:41;102833.88;;;1.75;100.00
59757;BME280;45631;51.962;5.974;2023-01-28T02:36:17;102835.59;;;1.74;100.00
59757;BME280;45631;51.962;5.974;2023-01-28T02:38:52;102834.75;;;1.72;100.00
59757;BME280;45631;51.962;5.974;2023-01-28T02:41:39;102834.75;;;1.74;100.00
59757;BME280;45631;51.962;5.974;2023-01-28T02:44:09;102831.31;;;1.78;100.00
59757;BME280;45631;51.962;5.974;2023-01-28T02:46:38;102829.56;;;1.80;100.00
59757;BME280;45631;51.962;5.974;2023-01-28T02:49:26;102827.81;;;1.71;100.00
59757;BME280;45631;51.962;5.974;2023-01-28T02:52:16;102834.69;;;1.64;100.00
59757;BME280;45631;51.962;5.974;2023-01-28T02:55:10;102827.78;;;1.60;100.00
59757;BME280;45631;51.962;5.974;2023-01-28T02:57:47;102828.63;;;1.58;100.00
59757;BME280;45631;51.962;5.974;2023-01-28T03:00:24;102832.97;;;1.62;100.00
59757;BME280;45631;51.962;5.974;2023-01-28T03:03:02;102829.50;;;1.58;100.00
59757;BME280;45631;51.962;5.974;2023-01-28T03:05:35;102839.00;;;1.58;100.00
59757;BME280;45631;51.962;5.974;2023-01-28T03:08:05;102840.72;;;1.54;100.00
59757;BME280;45631;51.962;5.974;2023-01-28T03:10:49;102835.53;;;1.57;100.00
59757;BME280;45631;51.962;5.974;2023-01-28T03:13:36;102844.19;;;1.55;100.00
59757;BME280;45631;51.962;5.974;2023-01-28T03:16:24;102838.16;;;1.62;100.00
59757;BME280;45631;51.962;5.974;2023-01-28T03:19:10;102845.94;;;1.59;100.00
59757;BME280;45631;51.962;5.974;2023-01-28T03:21:57;102837.25;;;1.50;100.00
59757;BME280;45631;51.962;5.974;2023-01-28T03:24:46;102831.16;;;1.48;100.00
59757;BME280;45631;51.962;5.974;2023-01-28T03:27:38;102838.09;;;1.51;100.00
59757;BME280;45631;51.962;5.974;2023-01-28T03:30:30;102837.25;;;1.54;100.00
59757;BME280;45631;51.962;5.974;2023-01-28T03:33:20;102825.19;;;1.59;100.00
59757;BME280;45631;51.962;5.974;2023-01-28T03:36:07;102828.59;;;1.51;100.00
59757;BME280;45631;51.962;5.974;2023-01-28T03:38:53;102826.81;;;1.46;100.00
59757;BME280;45631;51.962;5.974;2023-01-28T03:41:24;102828.63;;;1.53;100.00
59757;BME280;45631;51.962;5.974;2023-01-28T03:43:53;102833.75;;;1.47;100.00
59757;BME280;45631;51.962;5.974;2023-01-28T03:46:21;102831.16;;;1.41;100.00
59757;BME280;45631;51.962;5.974;2023-01-28T03:48:51;102840.63;;;1.34;100.00
59757;BME280;45631;51.962;5.974;2023-01-28T03:51:20;102838.88;;;1.36;100.00
59757;BME280;45631;51.962;5.974;2023-01-28T03:53:48;102851.06;;;1.43;100.00
59757;BME280;45631;51.962;5.974;2023-01-28T03:56:16;102850.16;;;1.38;100.00
59757;BME280;45631;51.962;5.974;2023-01-28T03:58:45;102863.09;;;1.35;100.00
59757;BME280;45631;51.962;5.974;2023-01-28T04:01:19;102858.78;;;1.32;100.00
59757;BME280;45631;51.962;5.974;2023-01-28T04:03:47;102849.25;;;1.33;100.00
59757;BME280;45631;51.962;5.974;2023-01-28T04:06:17;102852.69;;;1.33;100.00
59757;BME280;45631;51.962;5.974;2023-01-28T04:08:45;102851.84;;;1.34;100.00
59757;BME280;45631;51.962;5.974;2023-01-28T04:11:18;102856.13;;;1.31;100.00
59757;BME280;45631;51.962;5.974;2023-01-28T04:13:47;102850.94;;;1.25;100.00
59757;BME280;45631;51.962;5.974;2023-01-28T04:16:17;102853.53;;;1.25;100.00
59757;BME280;45631;51.962;5.974;2023-01-28T04:18:46;102850.06;;;1.24;100.00
59757;BME280;45631;51.962;5.974;2023-01-28T04:21:14;102861.31;;;1.25;100.00
59757;BME280;45631;51.962;5.974;2023-01-28T04:23:43;102855.28;;;1.26;100.00
59757;BME280;45631;51.962;5.974;2023-01-28T04:26:12;102848.34;;;1.26;100.00
59757;BME280;45631;51.962;5.974;2023-01-28T04:28:40;102849.19;;;1.19;100.00
59757;BME280;45631;51.962;5.974;2023-01-28T04:31:08;102846.59;;;1.25;100.00
59757;BME280;45631;51.962;5.974;2023-01-28T04:33:36;102847.44;;;1.20;100.00
59757;BME280;45631;51.962;5.974;2023-01-28T04:36:04;102857.84;;;1.24;100.00
59757;BME280;45631;51.962;5.974;2023-01-28T04:38:33;102863.03;;;1.24;100.00
59757;BME280;45631;51.962;5.974;2023-01-28T04:41:02;102869.91;;;1.17;100.00
59757;BME280;45631;51.962;5.974;2023-01-28T04:43:30;102867.31;;;1.19;100.00
59757;BME280;45631;51.962;5.974;2023-01-28T04:45:58;102861.22;;;1.14;100.00
59757;BME280;45631;51.962;5.974;2023-01-28T04:48:26;102871.59;;;1.15;100.00
59757;BME280;45631;51.962;5.974;2023-01-28T04:50:56;102868.94;;;1.06;100.00
59757;BME280;45631;51.962;5.974;2023-01-28T04:53:24;102868.94;;;1.03;100.00
59757;BME280;45631;51.962;5.974;2023-01-28T04:55:52;102861.16;;;1.03;100.00
59757;BME280;45631;51.962;5.974;2023-01-28T04:58:22;102868.94;;;1.08;100.00
59757;BME280;45631;51.962;5.974;2023-01-28T05:00:54;102878.44;;;1.04;100.00
59757;BME280;45631;51.962;5.974;2023-01-28T05:03:24;102880.19;;;1.05;100.00
59757;BME280;45631;51.962;5.974;2023-01-28T05:05:52;102880.19;;;1.05;100.00
59757;BME280;45631;51.962;5.974;2023-01-28T05:08:20;102878.44;;;1.04;100.00
59757;BME280;45631;51.962;5.974;2023-01-28T05:10:49;102877.56;;;1.02;100.00
59757;BME280;45631;51.962;5.974;2023-01-28T05:13:17;102869.78;;;1.02;100.00
59757;BME280;45631;51.962;5.974;2023-01-28T05:15:51;102873.28;;;1.07;100.00
59757;BME280;45631;51.962;5.974;2023-01-28T05:18:20;102873.28;;;1.07;100.00
59757;BME280;45631;51.962;5.974;2023-01-28T05:20:48;102873.25;;;1.01;100.00
59757;BME280;45631;51.962;5.974;2023-01-28T05:23:16;102869.78;;;1.02;100.00
59757;BME280;45631;51.962;5.974;2023-01-28T05:25:44;102874.09;;;1.00;100.00
59757;BME280;45631;51.962;5.974;2023-01-28T05:28:12;102869.69;;;0.91;100.00
59757;BME280;45631;51.962;5.974;2023-01-28T05:30:41;102862.81;;;0.95;100.00
59757;BME280;45631;51.962;5.974;2023-01-28T05:33:10;102863.75;;;1.00;100.00
59757;BME280;45631;51.962;5.974;2023-01-28T05:35:38;102861.91;;;0.87;100.00
59757;BME280;45631;51.962;5.974;2023-01-28T05:38:07;102862.75;;;0.87;100.00
59757;BME280;45631;51.962;5.974;2023-01-28T05:40:35;102864.47;;;0.83;100.00
59757;BME280;45631;51.962;5.974;2023-01-28T05:43:03;102865.44;;;0.96;100.00
59757;BME280;45631;51.962;5.974;2023-01-28T05:45:33;102868.03;;;0.98;100.00
59757;BME280;45631;51.962;5.974;2023-01-28T05:48:02;102869.69;;;0.87;100.00
59757;BME280;45631;51.962;5.974;2023-01-28T05:50:32;102869.59;;;0.76;100.00
59757;BME280;45631;51.962;5.974;2023-01-28T05:53:00;102869.66;;;0.82;100.00
59757;BME280;45631;51.962;5.974;2023-01-28T05:55:28;102871.38;;;0.84;100.00
59757;BME280;45631;51.962;5.974;2023-01-28T05:57:56;102867.91;;;0.79;100.00
59757;BME280;45631;51.962;5.974;2023-01-28T06:00:24;102874.84;;;0.83;100.00
59757;BME280;45631;51.962;5.974;2023-01-28T06:02:53;102867.09;;;0.87;100.00
59757;BME280;45631;51.962;5.974;2023-01-28T06:05:21;102879.19;;;0.89;100.00
59757;BME280;45631;51.962;5.974;2023-01-28T06:07:50;102867.09;;;0.90;100.00
59757;BME280;45631;51.962;5.974;2023-01-28T06:10:19;102872.25;;;0.85;100.00
59757;BME280;45631;51.962;5.974;2023-01-28T06:12:47;102880.88;;;0.86;100.00
59757;BME280;45631;51.962;5.974;2023-01-28T06:15:15;102867.91;;;0.82;100.00
59757;BME280;45631;51.962;5.974;2023-01-28T06:17:44;102877.44;;;0.83;100.00
59757;BME280;45631;51.962;5.974;2023-01-28T06:20:12;102874.78;;;0.77;100.00
59757;BME280;45631;51.962;5.974;2023-01-28T06:22:41;102870.47;;;0.78;100.00
59757;BME280;45631;51.962;5.974;2023-01-28T06:25:11;102880.03;;;0.83;100.00
59757;BME280;45631;51.962;5.974;2023-01-28T06:27:39;102878.28;;;0.84;100.00
59757;BME280;45631;51.962;5.974;2023-01-28T06:30:08;102879.09;;;0.75;100.00
59757;BME280;45631;51.962;5.974;2023-01-28T06:32:38;102873.94;;;0.77;100.00
59757;BME280;45631;51.962;5.974;2023-01-28T06:35:07;102870.41;;;0.72;100.00
59757;BME280;45631;51.962;5.974;2023-01-28T06:37:35;102864.31;;;0.66;100.00
59757;BME280;45631;51.962;5.974;2023-01-28T06:40:05;102872.94;;;0.62;100.00
59757;BME280;45631;51.962;5.974;2023-01-28T06:42:35;102872.94;;;0.65;100.00
59757;BME280;45631;51.962;5.974;2023-01-28T06:45:04;102875.50;;;0.61;100.00
59757;BME280;45631;51.962;5.974;2023-01-28T06:47:32;102870.34;;;0.65;100.00
59757;BME280;45631;51.962;5.974;2023-01-28T06:50:00;102879.84;;;0.65;100.00
59757;BME280;45631;51.962;5.974;2023-01-28T06:52:29;102891.13;;;0.70;100.00
59757;BME280;45631;51.962;5.974;2023-01-28T06:54:57;102894.47;;;0.57;100.00
59757;BME280;45631;51.962;5.974;2023-01-28T06:57:27;102890.19;;;0.59;100.00
59757;BME280;45631;51.962;5.974;2023-01-28T06:59:57;102884.09;;;0.54;100.00
59757;BME280;45631;51.962;5.974;2023-01-28T07:02:25;102888.41;;;0.55;100.00
59757;BME280;45631;51.962;5.974;2023-01-28T07:04:53;102886.69;;;0.55;100.00
59757;BME280;45631;51.962;5.974;2023-01-28T07:07:21;102891.94;;;0.63;100.00
59757;BME280;45631;51.962;5.974;2023-01-28T07:09:49;102904.91;;;0.67;100.00
59757;BME280;45631;51.962;5.974;2023-01-28T07:12:17;102909.16;;;0.61;100.00
59757;BME280;45631;51.962;5.974;2023-01-28T07:14:45;102912.56;;;0.54;100.00
59757;BME280;45631;51.962;5.974;2023-01-28T07:17:15;102919.44;;;0.53;100.00
59757;BME280;45631;51.962;5.974;2023-01-28T07:19:43;102917.84;;;0.63;100.00
59757;BME280;45631;51.962;5.974;2023-01-28T07:22:11;102922.09;;;0.56;100.00
59757;BME280;45631;51.962;5.974;2023-01-28T07:24:39;102924.63;;;0.52;100.00
59757;BME280;45631;51.962;5.974;2023-01-28T07:27:08;102924.59;;;0.48;100.00
59757;BME280;45631;51.962;5.974;2023-01-28T07:29:36;102931.44;;;0.43;100.00
59757;BME280;45631;51.962;5.974;2023-01-28T07:32:05;102934.94;;;0.45;100.00
59757;BME280;45631;51.962;5.974;2023-01-28T07:34:34;102940.94;;;0.43;100.00
59757;BME280;45631;51.962;5.974;2023-01-28T07:37:05;102943.50;;;0.41;100.00
59757;BME280;45631;51.962;5.974;2023-01-28T07:39:33;102946.13;;;0.44;100.00
59757;BME280;45631;51.962;5.974;2023-01-28T07:42:01;102936.66;;;0.46;100.00
59757;BME280;45631;51.962;5.974;2023-01-28T07:44:30;102945.28;;;0.45;100.00
59757;BME280;45631;51.962;5.974;2023-01-28T07:46:58;102946.22;;;0.54;100.00
59757;BME280;45631;51.962;5.974;2023-01-28T07:49:26;102930.69;;;0.52;100.00
59757;BME280;45631;51.962;5.974;2023-01-28T07:51:55;102937.63;;;0.55;100.00
59757;BME280;45631;51.962;5.974;2023-01-28T07:54:23;102945.38;;;0.55;100.00
59757;BME280;45631;51.962;5.974;2023-01-28T07:56:52;102947.97;;;0.55;100.00
59757;BME280;45631;51.962;5.974;2023-01-28T07:59:21;102954.88;;;0.57;100.00
59757;BME280;45631;51.962;5.974;2023-01-28T08:01:49;102956.63;;;0.57;100.00
59757;BME280;45631;51.962;5.974;2023-01-28T08:04:20;102961.78;;;0.57;100.00
59757;BME280;45631;51.962;5.974;2023-01-28T08:06:49;102957.50;;;0.59;100.00
59757;BME280;45631;51.962;5.974;2023-01-28T08:09:19;102953.28;;;0.69;100.00
59757;BME280;45631;51.962;5.974;2023-01-28T08:11:47;102966.25;;;0.70;100.00
59757;BME280;45631;51.962;5.974;2023-01-28T08:14:15;102957.63;;;0.71;100.00
59757;BME280;45631;51.962;5.974;2023-01-28T08:16:43;102973.19;;;0.74;100.00
59757;BME280;45631;51.962;5.974;2023-01-28T08:19:11;102973.13;;;0.68;100.00
59757;BME280;45631;51.962;5.974;2023-01-28T08:21:40;102974.03;;;0.70;100.00
59757;BME280;45631;51.962;5.974;2023-01-28T08:24:08;102968.78;;;0.65;100.00
59757;BME280;45631;51.962;5.974;2023-01-28T08:26:38;102967.91;;;0.65;100.00
59757;BME280;45631;51.962;5.974;2023-01-28T08:29:06;102973.16;;;0.70;100.00
59757;BME280;45631;51.962;5.974;2023-01-28T08:31:34;102973.19;;;0.74;100.00
59757;BME280;45631;51.962;5.974;2023-01-28T08:34:02;102974.03;;;0.73;100.00
59757;BME280;45631;51.962;5.974;2023-01-28T08:36:30;102975.81;;;0.76;100.00
59757;BME280;45631;51.962;5.974;2023-01-28T08:39:01;102978.41;;;0.77;100.00
59757;BME280;45631;51.962;5.974;2023-01-28T08:41:30;102981.06;;;0.83;100.00
59757;BME280;45631;51.962;5.974;2023-01-28T08:43:59;102994.88;;;0.84;100.00
59757;BME280;45631;51.962;5.974;2023-01-28T08:46:27;102988.00;;;0.86;100.00
59757;BME280;45631;51.962;5.974;2023-01-28T08:48:56;102989.75;;;0.89;100.00
59757;BME280;45631;51.962;5.974;2023-01-28T08:51:24;102988.03;;;0.92;100.00
59757;BME280;45631;51.962;5.974;2023-01-28T08:53:54;102978.50;;;0.90;100.00
59757;BME280;45631;51.962;5.974;2023-01-28T08:56:22;102984.63;;;0.98;100.00
59757;BME280;45631;51.962;5.974;2023-01-28T08:58:50;102988.06;;;0.95;100.00
59757;BME280;45631;51.962;5.974;2023-01-28T09:01:20;103002.75;;;0.95;100.00
59757;BME280;45631;51.962;5.974;2023-01-28T09:03:48;103001.91;;;0.94;100.00
59757;BME280;45631;51.962;5.974;2023-01-28T09:06:16;103002.75;;;0.95;100.00
59757;BME280;45631;51.962;5.974;2023-01-28T09:08:44;102995.81;;;0.91;100.00
59757;BME280;45631;51.962;5.974;2023-01-28T09:11:12;103001.78;;;0.83;100.00
59757;BME280;45631;51.962;5.974;2023-01-28T09:13:40;102997.47;;;0.84;100.00
59757;BME280;45631;51.962;5.974;2023-01-28T09:16:08;102991.47;;;0.88;100.00
59757;BME280;45631;51.962;5.974;2023-01-28T09:18:38;102994.94;;;0.89;100.00
59757;BME280;45631;51.962;5.974;2023-01-28T09:21:06;103010.44;;;0.87;100.00
59757;BME280;45631;51.962;5.974;2023-01-28T09:23:35;103018.28;;;0.92;100.00
59757;BME280;45631;51.962;5.974;2023-01-28T09:26:04;103019.13;;;0.92;100.00
59757;BME280;45631;51.962;5.974;2023-01-28T09:28:32;103031.25;;;0.95;100.00
59757;BME280;45631;51.962;5.974;2023-01-28T09:31:01;103025.22;;;0.94;100.00
59757;BME280;45631;51.962;5.974;2023-01-28T09:33:30;103031.28;;;0.98;100.00
59757;BME280;45631;51.962;5.974;2023-01-28T09:36:00;103035.59;;;0.94;100.00
59757;BME280;45631;51.962;5.974;2023-01-28T09:38:29;103025.22;;;0.93;100.00
59757;BME280;45631;51.962;5.974;2023-01-28T09:40:58;103027.81;;;0.96;100.00
59757;BME280;45631;51.962;5.974;2023-01-28T09:43:43;103038.22;;;0.99;100.00
59757;BME280;45631;51.962;5.974;2023-01-28T09:46:17;103040.75;;;0.93;100.00
59757;BME280;45631;51.962;5.974;2023-01-28T09:48:47;103039.94;;;0.97;100.00
59757;BME280;45631;51.962;5.974;2023-01-28T09:51:28;103033.81;;;0.89;100.00
59757;BME280;45631;51.962;5.974;2023-01-28T09:54:02;103043.38;;;0.94;100.00
59757;BME280;45631;51.962;5.974;2023-01-28T09:56:33;103052.88;;;0.97;100.00
59757;BME280;45631;51.962;5.974;2023-01-28T09:59:15;103049.47;;;1.01;100.00
59757;BME280;45631;51.962;5.974;2023-01-28T10:01:49;103061.75;;;1.21;100.00
59757;BME280;45631;51.962;5.974;2023-01-28T10:04:28;103070.38;;;1.20;100.00
59757;BME280;45631;51.962;5.974;2023-01-28T10:09:56;103050.44;;;1.11;100.00
59757;BME280;45631;51.962;5.974;2023-01-28T10:12:46;103049.59;;;1.15;100.00
59757;BME280;45631;51.962;5.974;2023-01-28T10:15:27;103053.06;;;1.18;100.00
59757;BME280;45631;51.962;5.974;2023-01-28T10:18:02;103049.69;;;1.24;100.00
59757;BME280;45631;51.962;5.974;2023-01-28T10:20:47;103044.56;;;1.32;100.00
59757;BME280;45631;51.962;5.974;2023-01-28T10:23:23;103037.69;;;1.37;100.00
59757;BME280;45631;51.962;5.974;2023-01-28T10:25:54;103030.00;;;1.46;100.00
59757;BME280;45631;51.962;5.974;2023-01-28T10:28:25;103031.84;;;1.58;100.00
59757;BME280;45631;51.962;5.974;2023-01-28T10:30:54;103030.13;;;1.63;100.00
59757;BME280;45631;51.962;5.974;2023-01-28T10:33:28;103038.81;;;1.68;100.00
59757;BME280;45631;51.962;5.974;2023-01-28T10:35:58;103043.16;;;1.74;100.00
59757;BME280;45631;51.962;5.974;2023-01-28T10:38:29;103044.09;;;1.82;100.00
59757;BME280;45631;51.962;5.974;2023-01-28T10:41:00;103028.50;;;1.79;100.00
59757;BME280;45631;51.962;5.974;2023-01-28T10:43:30;103037.22;;;1.89;100.00
59757;BME280;45631;51.962;5.974;2023-01-28T10:46:03;103034.63;;;1.91;100.00
59757;BME280;45631;51.962;5.974;2023-01-28T10:48:36;103025.13;;;1.94;100.00
59757;BME280;45631;51.962;5.974;2023-01-28T10:51:06;103017.34;;;1.97;100.00
59757;BME280;45631;51.962;5.974;2023-01-28T10:53:37;103024.31;;;2.03;100.00
59757;BME280;45631;51.962;5.974;2023-01-28T10:56:07;103020.00;;;2.10;100.00
59757;BME280;45631;51.962;5.974;2023-01-28T10:58:47;103025.25;;;2.13;100.00
59757;BME280;45631;51.962;5.974;2023-01-28T11:01:20;103010.53;;;2.10;100.00
59757;BME280;45631;51.962;5.974;2023-01-28T11:03:53;103002.75;;;2.19;100.00
59757;BME280;45631;51.962;5.974;2023-01-28T11:06:24;102991.56;;;2.27;100.00
59757;BME280;45631;51.962;5.974;2023-01-28T11:08:54;102985.53;;;2.43;100.00
59757;BME280;45631;51.962;5.974;2023-01-28T11:11:24;102994.25;;;2.59;100.00
59757;BME280;45631;51.962;5.974;2023-01-28T11:13:53;102996.84;;;2.61;100.00
59757;BME280;45631;51.962;5.974;2023-01-28T11:16:24;102983.88;;;2.75;100.00
59757;BME280;45631;51.962;5.974;2023-01-28T11:18:56;102976.09;;;2.76;100.00
59757;BME280;45631;51.962;5.974;2023-01-28T11:21:29;102983.88;;;2.67;100.00
59757;BME280;45631;51.962;5.974;2023-01-28T11:24:04;102973.50;;;2.81;100.00
59757;BME280;45631;51.962;5.974;2023-01-28T11:26:35;102968.31;;;2.73;100.00
59757;BME280;45631;51.962;5.974;2023-01-28T11:29:05;102953.56;;;2.75;100.00
59757;BME280;45631;51.962;5.974;2023-01-28T11:31:37;102946.66;;;2.80;100.00
59757;BME280;45631;51.962;5.974;2023-01-28T11:34:13;102939.72;;;2.75;100.00
59757;BME280;45631;51.962;5.974;2023-01-28T11:36:49;102915.44;;;2.65;100.00
59757;BME280;45631;51.962;5.974;2023-01-28T11:39:21;102903.31;;;2.61;100.00
59757;BME280;45631;51.962;5.974;2023-01-28T11:41:52;102895.50;;;2.56;100.00
59757;BME280;45631;51.962;5.974;2023-01-28T11:44:22;102895.53;;;2.65;100.00
59757;BME280;45631;51.962;5.974;2023-01-28T11:46:58;102905.94;;;2.73;100.00
59757;BME280;45631;51.962;5.974;2023-01-28T11:49:37;102900.72;;;2.67;100.00
59757;BME280;45631;51.962;5.974;2023-01-28T11:52:16;102899.00;;;2.69;100.00
59757;BME280;45631;51.962;5.974;2023-01-28T11:54:55;102892.94;;;2.70;100.00
59757;BME280;45631;51.962;5.974;2023-01-28T11:57:30;102902.44;;;2.71;100.00
59757;BME280;45631;51.962;5.974;2023-01-28T12:00:20;102897.25;;;2.83;100.00
59757;BME280;45631;51.962;5.974;2023-01-28T12:03:04;102898.16;;;2.82;100.00
59757;BME280;45631;51.962;5.974;2023-01-28T12:05:49;102904.19;;;2.92;100.00
59757;BME280;45631;51.962;5.974;2023-01-28T12:08:21;102908.53;;;2.90;100.00
59757;BME280;45631;51.962;5.974;2023-01-28T12:11:16;102916.34;;;2.72;100.00
59757;BME280;45631;51.962;5.974;2023-01-28T12:14:17;102922.38;;;2.75;100.00
59757;BME280;45631;51.962;5.974;2023-01-28T12:17:01;102922.38;;;2.64;100.00
59757;BME280;45631;51.962;5.974;2023-01-28T12:19:45;102921.50;;;2.68;100.00
59757;BME280;45631;51.962;5.974;2023-01-28T12:25:19;102929.31;;;2.78;100.00
59757;BME280;45631;51.962;5.974;2023-01-28T12:27:59;102921.53;;;2.70;100.00
59757;BME280;45631;51.962;5.974;2023-01-28T12:30:41;102929.31;;;2.70;100.00
59757;BME280;45631;51.962;5.974;2023-01-28T12:36:24;102918.03;;;2.69;100.00
59757;BME280;45631;51.962;5.974;2023-01-28T12:39:04;102911.13;;;2.70;100.00
59757;BME280;45631;51.962;5.974;2023-01-28T12:41:39;102914.59;;;2.70;100.00
59757;BME280;45631;51.962;5.974;2023-01-28T12:44:13;102921.50;;;2.79;100.00
59757;BME280;45631;51.962;5.974;2023-01-28T12:46:48;102913.75;;;2.95;100.00
59757;BME280;45631;51.962;5.974;2023-01-28T12:49:18;102923.25;;;3.00;100.00
59757;BME280;45631;51.962;5.974;2023-01-28T12:51:55;102923.25;;;2.91;100.00
59757;BME280;45631;51.962;5.974;2023-01-28T12:54:30;102924.97;;;3.29;100.00
59757;BME280;45631;51.962;5.974;2023-01-28T12:57:00;102920.66;;;3.20;100.00
59757;BME280;45631;51.962;5.974;2023-01-28T12:59:36;102928.41;;;3.47;100.00
59757;BME280;45631;51.962;5.974;2023-01-28T13:02:17;102924.00;;;3.73;100.00
59757;BME280;45631;51.962;5.974;2023-01-28T13:04:53;102922.19;;;3.91;100.00
59757;BME280;45631;51.962;5.974;2023-01-28T13:07:22;102904.78;;;4.04;100.00
59757;BME280;45631;51.962;5.974;2023-01-28T13:09:57;102902.16;;;4.07;100.00
59757;BME280;45631;51.962;5.974;2023-01-28T13:12:31;102902.97;;;4.17;100.00
59757;BME280;45631;51.962;5.974;2023-01-28T13:15:05;102894.22;;;4.30;100.00
59757;BME280;45631;51.962;5.974;2023-01-28T13:17:38;102901.13;;;4.40;100.00
59757;BME280;45631;51.962;5.974;2023-01-28T13:20:13;102896.78;;;4.38;100.00
59757;BME280;45631;51.962;5.974;2023-01-28T13:22:43;102894.09;;;4.50;100.00
59757;BME280;45631;51.962;5.974;2023-01-28T13:25:18;102882.81;;;4.47;100.00
59757;BME280;45631;51.962;5.974;2023-01-28T13:27:54;102870.69;;;4.43;100.00